sensor_id;sensor_type;location;lat;lon;timestamp;temperature;humidity
5689;DHT22;2869;50.432;8.680;2023-09-30T00:02:18;15.70;99.90
5689;DHT22;2869;50.432;8.680;2023-09-30T00:04:45;15.60;99.90
5689;DHT22;2869;50.432;8.680;2023-09-30T00:07:13;15.60;99.90
5689;DHT22;2869;50.432;8.680;2023-09-30T00:09:40;15.60;99.90
5689;DHT22;2869;50.432;8.680;2023-09-30T00:12:07;15.60;99.90
5689;DHT22;2869;50.432;8.680;2023-09-30T00:14:34;15.60;99.90
5689;DHT22;2869;50.432;8.680;2023-09-30T00:17:01;15.60;99.90
5689;DHT22;2869;50.432;8.680;2023-09-30T00:19:28;15.60;99.90
5689;DHT22;2869;50.432;8.680;2023-09-30T00:21:55;15.50;99.90
5689;DHT22;2869;50.432;8.680;2023-09-30T00:24:23;15.50;99.90
5689;DHT22;2869;50.432;8.680;2023-09-30T00:26:50;15.50;99.90
5689;DHT22;2869;50.432;8.680;2023-09-30T00:29:17;15.50;99.90
5689;DHT22;2869;50.432;8.680;2023-09-30T00:31:44;15.50;99.90
5689;DHT22;2869;50.432;8.680;2023-09-30T00:34:10;15.40;99.90
5689;DHT22;2869;50.432;8.680;2023-09-30T00:36:37;15.40;99.90
5689;DHT22;2869;50.432;8.680;2023-09-30T00:39:04;15.40;99.90
5689;DHT22;2869;50.432;8.680;2023-09-30T00:41:32;15.40;99.90
5689;DHT22;2869;50.432;8.680;2023-09-30T00:44:00;15.40;99.90
5689;DHT22;2869;50.432;8.680;2023-09-30T00:46:28;15.40;99.90
5689;DHT22;2869;50.432;8.680;2023-09-30T00:48:57;15.40;99.90
5689;DHT22;2869;50.432;8.680;2023-09-30T00:51:24;15.30;99.90
5689;DHT22;2869;50.432;8.680;2023-09-30T00:53:52;15.30;99.90
5689;DHT22;2869;50.432;8.680;2023-09-30T00:56:19;15.30;99.90
5689;DHT22;2869;50.432;8.680;2023-09-30T00:58:50;15.30;99.90
5689;DHT22;2869;50.432;8.680;2023-09-30T01:01:18;15.20;99.90
5689;DHT22;2869;50.432;8.680;2023-09-30T01:03:46;15.20;99.90
5689;DHT22;2869;50.432;8.680;2023-09-30T01:06:13;15.20;99.90
5689;DHT22;2869;50.432;8.680;2023-09-30T01:08:40;15.20;99.90
5689;DHT22;2869;50.432;8.680;2023-09-30T01:11:07;15.10;99.90
5689;DHT22;2869;50.432;8.680;2023-09-30T01:13:34;15.10;99.90
5689;DHT22;2869;50.432;8.680;2023-09-30T01:16:04;15.00;99.90
5689;DHT22;2869;50.432;8.680;2023-09-30T01:18:32;15.00;99.90
5689;DHT22;2869;50.432;8.680;2023-09-30T01:21:02;15.00;99.90
5689;DHT22;2869;50.432;8.680;2023-09-30T01:23:31;15.00;99.90
5689;DHT22;2869;50.432;8.680;2023-09-30T01:26:02;15.00;99.90
5689;DHT22;2869;50.432;8.680;2023-09-30T01:28:29;15.00;99.90
5689;DHT22;2869;50.432;8.680;2023-09-30T01:30:56;14.90;99.90
5689;DHT22;2869;50.432;8.680;2023-09-30T01:33:23;14.90;99.90
5689;DHT22;2869;50.432;8.680;2023-09-30T01:35:50;14.90;99.90
5689;DHT22;2869;50.432;8.680;2023-09-30T01:38:17;14.90;99.90
5689;DHT22;2869;50.432;8.680;2023-09-30T01:40:45;14.90;99.90
5689;DHT22;2869;50.432;8.680;2023-09-30T01:43:12;14.70;99.90
5689;DHT22;2869;50.432;8.680;2023-09-30T01:45:39;14.80;99.90
5689;DHT22;2869;50.432;8.680;2023-09-30T01:48:06;14.80;99.90
5689;DHT22;2869;50.432;8.680;2023-09-30T01:50:32;14.80;99.90
5689;DHT22;2869;50.432;8.680;2023-09-30T01:52:59;14.80;99.90
5689;DHT22;2869;50.432;8.680;2023-09-30T01:55:26;14.80;99.90
5689;DHT22;2869;50.432;8.680;2023-09-30T01:57:54;14.70;99.90
5689;DHT22;2869;50.432;8.680;2023-09-30T02:00:20;14.70;99.90
5689;DHT22;2869;50.432;8.680;2023-09-30T02:02:47;14.70;99.90
5689;DHT22;2869;50.432;8.680;2023-09-30T02:05:14;14.60;99.90
5689;DHT22;2869;50.432;8.680;2023-09-30T02:07:41;14.60;99.90
5689;DHT22;2869;50.432;8.680;2023-09-30T02:10:08;14.60;99.90
5689;DHT22;2869;50.432;8.680;2023-09-30T02:12:35;14.60;99.90
5689;DHT22;2869;50.432;8.680;2023-09-30T02:15:05;14.50;99.90
5689;DHT22;2869;50.432;8.680;2023-09-30T02:17:32;14.50;99.90
5689;DHT22;2869;50.432;8.680;2023-09-30T02:19:59;14.50;99.90
5689;DHT22;2869;50.432;8.680;2023-09-30T02:22:26;14.50;99.90
5689;DHT22;2869;50.432;8.680;2023-09-30T02:24:53;14.40;99.90
5689;DHT22;2869;50.432;8.680;2023-09-30T02:27:20;14.40;99.90
5689;DHT22;2869;50.432;8.680;2023-09-30T02:29:47;14.30;99.90
5689;DHT22;2869;50.432;8.680;2023-09-30T02:32:15;14.30;99.90
5689;DHT22;2869;50.432;8.680;2023-09-30T02:34:41;14.20;99.90
5689;DHT22;2869;50.432;8.680;2023-09-30T02:37:09;14.20;99.90
5689;DHT22;2869;50.432;8.680;2023-09-30T02:39:36;14.20;99.90
5689;DHT22;2869;50.432;8.680;2023-09-30T02:42:03;14.20;99.90
5689;DHT22;2869;50.432;8.680;2023-09-30T02:44:30;14.10;99.90
5689;DHT22;2869;50.432;8.680;2023-09-30T02:46:57;14.10;99.90
5689;DHT22;2869;50.432;8.680;2023-09-30T02:49:25;14.10;99.90
5689;DHT22;2869;50.432;8.680;2023-09-30T02:51:51;14.10;99.90
5689;DHT22;2869;50.432;8.680;2023-09-30T02:54:18;14.00;99.90
5689;DHT22;2869;50.432;8.680;2023-09-30T02:56:45;14.00;99.90
5689;DHT22;2869;50.432;8.680;2023-09-30T02:59:13;13.90;99.90
5689;DHT22;2869;50.432;8.680;2023-09-30T03:01:40;13.90;99.90
5689;DHT22;2869;50.432;8.680;2023-09-30T03:04:07;13.90;99.90
5689;DHT22;2869;50.432;8.680;2023-09-30T03:06:36;13.90;99.90
5689;DHT22;2869;50.432;8.680;2023-09-30T03:09:04;13.90;99.90
5689;DHT22;2869;50.432;8.680;2023-09-30T03:11:30;13.90;99.90
5689;DHT22;2869;50.432;8.680;2023-09-30T03:13:57;13.90;99.90
5689;DHT22;2869;50.432;8.680;2023-09-30T03:16:24;13.90;99.90
5689;DHT22;2869;50.432;8.680;2023-09-30T03:18:52;13.90;99.90
5689;DHT22;2869;50.432;8.680;2023-09-30T03:21:21;13.90;99.90
5689;DHT22;2869;50.432;8.680;2023-09-30T03:23:49;13.80;99.90
5689;DHT22;2869;50.432;8.680;2023-09-30T03:26:15;13.80;99.90
5689;DHT22;2869;50.432;8.680;2023-09-30T03:28:42;13.70;99.90
5689;DHT22;2869;50.432;8.680;2023-09-30T03:31:09;13.70;99.90
5689;DHT22;2869;50.432;8.680;2023-09-30T03:33:37;13.80;99.90
5689;DHT22;2869;50.432;8.680;2023-09-30T03:36:04;13.70;99.90
5689;DHT22;2869;50.432;8.680;2023-09-30T03:38:31;13.70;99.90
5689;DHT22;2869;50.432;8.680;2023-09-30T03:40:59;13.70;99.90
5689;DHT22;2869;50.432;8.680;2023-09-30T03:43:26;13.70;99.90
5689;DHT22;2869;50.432;8.680;2023-09-30T03:45:53;13.80;99.90
5689;DHT22;2869;50.432;8.680;2023-09-30T03:48:20;13.80;99.90
5689;DHT22;2869;50.432;8.680;2023-09-30T03:50:48;13.80;99.90
5689;DHT22;2869;50.432;8.680;2023-09-30T03:53:14;13.80;99.90
5689;DHT22;2869;50.432;8.680;2023-09-30T03:55:41;13.90;99.90
5689;DHT22;2869;50.432;8.680;2023-09-30T03:58:09;13.90;99.90
5689;DHT22;2869;50.432;8.680;2023-09-30T04:00:36;13.80;99.90
5689;DHT22;2869;50.432;8.680;2023-09-30T04:03:03;13.80;99.90
5689;DHT22;2869;50.432;8.680;2023-09-30T04:05:29;13.70;99.90
5689;DHT22;2869;50.432;8.680;2023-09-30T04:07:59;13.60;99.90
5689;DHT22;2869;50.432;8.680;2023-09-30T04:10:26;13.60;99.90
5689;DHT22;2869;50.432;8.680;2023-09-30T04:12:54;13.60;99.90
5689;DHT22;2869;50.432;8.680;2023-09-30T04:15:22;13.50;99.90
5689;DHT22;2869;50.432;8.680;2023-09-30T04:17:49;13.50;99.90
5689;DHT22;2869;50.432;8.680;2023-09-30T04:20:17;13.50;99.90
5689;DHT22;2869;50.432;8.680;2023-09-30T04:22:47;13.40;99.90
5689;DHT22;2869;50.432;8.680;2023-09-30T04:25:14;13.40;99.90
5689;DHT22;2869;50.432;8.680;2023-09-30T04:27:42;13.40;99.90
5689;DHT22;2869;50.432;8.680;2023-09-30T04:30:10;13.30;99.90
5689;DHT22;2869;50.432;8.680;2023-09-30T04:32:38;13.30;99.90
5689;DHT22;2869;50.432;8.680;2023-09-30T04:35:06;13.30;99.90
5689;DHT22;2869;50.432;8.680;2023-09-30T04:37:33;13.20;99.90
5689;DHT22;2869;50.432;8.680;2023-09-30T04:40:02;13.20;99.90
5689;DHT22;2869;50.432;8.680;2023-09-30T04:42:33;13.20;99.90
5689;DHT22;2869;50.432;8.680;2023-09-30T04:45:02;13.20;99.90
5689;DHT22;2869;50.432;8.680;2023-09-30T04:47:29;13.10;99.90
5689;DHT22;2869;50.432;8.680;2023-09-30T04:49:57;13.10;99.90
5689;DHT22;2869;50.432;8.680;2023-09-30T04:52:24;13.10;99.90
5689;DHT22;2869;50.432;8.680;2023-09-30T04:54:53;13.00;99.90
5689;DHT22;2869;50.432;8.680;2023-09-30T04:57:19;13.00;99.90
5689;DHT22;2869;50.432;8.680;2023-09-30T04:59:47;12.90;99.90
5689;DHT22;2869;50.432;8.680;2023-09-30T05:02:14;12.90;99.90
5689;DHT22;2869;50.432;8.680;2023-09-30T05:04:41;12.80;99.90
5689;DHT22;2869;50.432;8.680;2023-09-30T05:07:09;12.80;99.90
5689;DHT22;2869;50.432;8.680;2023-09-30T05:09:38;12.70;99.90
5689;DHT22;2869;50.432;8.680;2023-09-30T05:12:05;12.70;99.90
5689;DHT22;2869;50.432;8.680;2023-09-30T05:14:32;12.60;99.90
5689;DHT22;2869;50.432;8.680;2023-09-30T05:16:59;12.60;99.90
5689;DHT22;2869;50.432;8.680;2023-09-30T05:19:25;12.50;99.90
5689;DHT22;2869;50.432;8.680;2023-09-30T05:21:52;12.50;99.90
5689;DHT22;2869;50.432;8.680;2023-09-30T05:24:20;12.50;99.90
5689;DHT22;2869;50.432;8.680;2023-09-30T05:26:47;12.40;99.90
5689;DHT22;2869;50.432;8.680;2023-09-30T05:29:13;12.40;99.90
5689;DHT22;2869;50.432;8.680;2023-09-30T05:31:40;12.40;99.90
5689;DHT22;2869;50.432;8.680;2023-09-30T05:34:07;12.40;99.90
5689;DHT22;2869;50.432;8.680;2023-09-30T05:36:34;12.30;99.90
5689;DHT22;2869;50.432;8.680;2023-09-30T05:39:01;12.30;99.90
5689;DHT22;2869;50.432;8.680;2023-09-30T05:41:30;12.30;99.90
5689;DHT22;2869;50.432;8.680;2023-09-30T05:43:56;12.30;99.90
5689;DHT22;2869;50.432;8.680;2023-09-30T05:46:24;12.20;99.90
5689;DHT22;2869;50.432;8.680;2023-09-30T05:48:51;12.30;99.90
5689;DHT22;2869;50.432;8.680;2023-09-30T05:51:17;12.30;99.90
5689;DHT22;2869;50.432;8.680;2023-09-30T05:53:44;12.30;99.90
5689;DHT22;2869;50.432;8.680;2023-09-30T05:56:12;12.30;99.90
5689;DHT22;2869;50.432;8.680;2023-09-30T05:58:41;12.40;99.90
5689;DHT22;2869;50.432;8.680;2023-09-30T06:01:08;12.40;99.90
5689;DHT22;2869;50.432;8.680;2023-09-30T06:03:38;12.40;99.90
5689;DHT22;2869;50.432;8.680;2023-09-30T06:06:10;12.50;99.90
5689;DHT22;2869;50.432;8.680;2023-09-30T06:08:38;12.50;99.90
5689;DHT22;2869;50.432;8.680;2023-09-30T06:11:04;12.50;99.90
5689;DHT22;2869;50.432;8.680;2023-09-30T06:13:32;12.70;99.90
5689;DHT22;2869;50.432;8.680;2023-09-30T06:16:00;12.90;99.90
5689;DHT22;2869;50.432;8.680;2023-09-30T06:18:27;13.00;99.90
5689;DHT22;2869;50.432;8.680;2023-09-30T06:20:54;13.30;99.90
5689;DHT22;2869;50.432;8.680;2023-09-30T06:23:21;13.40;99.90
5689;DHT22;2869;50.432;8.680;2023-09-30T06:25:47;13.70;99.90
5689;DHT22;2869;50.432;8.680;2023-09-30T06:28:14;14.00;99.90
5689;DHT22;2869;50.432;8.680;2023-09-30T06:30:40;14.20;99.90
5689;DHT22;2869;50.432;8.680;2023-09-30T06:33:11;14.50;99.90
5689;DHT22;2869;50.432;8.680;2023-09-30T06:35:40;14.60;99.90
5689;DHT22;2869;50.432;8.680;2023-09-30T06:38:16;14.70;99.90
5689;DHT22;2869;50.432;8.680;2023-09-30T06:40:42;14.60;99.90
5689;DHT22;2869;50.432;8.680;2023-09-30T06:43:10;14.40;99.90
5689;DHT22;2869;50.432;8.680;2023-09-30T06:45:37;14.40;99.90
5689;DHT22;2869;50.432;8.680;2023-09-30T06:48:07;14.50;99.90
5689;DHT22;2869;50.432;8.680;2023-09-30T06:50:39;14.90;99.90
5689;DHT22;2869;50.432;8.680;2023-09-30T06:53:06;15.60;99.90
5689;DHT22;2869;50.432;8.680;2023-09-30T06:55:36;16.20;99.90
5689;DHT22;2869;50.432;8.680;2023-09-30T06:58:03;16.90;99.90
5689;DHT22;2869;50.432;8.680;2023-09-30T07:00:33;17.60;99.90
5689;DHT22;2869;50.432;8.680;2023-09-30T07:02:59;18.40;99.90
5689;DHT22;2869;50.432;8.680;2023-09-30T07:05:26;18.90;99.90
5689;DHT22;2869;50.432;8.680;2023-09-30T07:07:55;19.40;99.90
5689;DHT22;2869;50.432;8.680;2023-09-30T07:10:22;19.60;99.90
5689;DHT22;2869;50.432;8.680;2023-09-30T07:12:48;19.90;99.90
5689;DHT22;2869;50.432;8.680;2023-09-30T07:15:15;20.50;99.90
5689;DHT22;2869;50.432;8.680;2023-09-30T07:17:42;21.00;99.90
5689;DHT22;2869;50.432;8.680;2023-09-30T07:20:09;21.50;99.90
5689;DHT22;2869;50.432;8.680;2023-09-30T07:22:36;21.70;99.90
5689;DHT22;2869;50.432;8.680;2023-09-30T07:25:04;21.60;99.90
5689;DHT22;2869;50.432;8.680;2023-09-30T07:27:31;21.60;99.90
5689;DHT22;2869;50.432;8.680;2023-09-30T07:29:58;21.70;99.90
5689;DHT22;2869;50.432;8.680;2023-09-30T07:32:25;21.50;99.90
5689;DHT22;2869;50.432;8.680;2023-09-30T07:34:52;21.30;99.90
5689;DHT22;2869;50.432;8.680;2023-09-30T07:37:19;20.80;99.90
5689;DHT22;2869;50.432;8.680;2023-09-30T07:39:46;20.50;99.90
5689;DHT22;2869;50.432;8.680;2023-09-30T07:42:14;20.30;99.90
5689;DHT22;2869;50.432;8.680;2023-09-30T07:44:42;19.90;99.90
5689;DHT22;2869;50.432;8.680;2023-09-30T07:47:09;19.80;99.90
5689;DHT22;2869;50.432;8.680;2023-09-30T07:49:35;20.00;99.90
5689;DHT22;2869;50.432;8.680;2023-09-30T07:52:02;20.10;99.90
5689;DHT22;2869;50.432;8.680;2023-09-30T07:54:29;20.20;99.90
5689;DHT22;2869;50.432;8.680;2023-09-30T07:56:56;20.30;99.90
5689;DHT22;2869;50.432;8.680;2023-09-30T07:59:24;20.30;99.90
5689;DHT22;2869;50.432;8.680;2023-09-30T08:01:51;20.30;99.90
5689;DHT22;2869;50.432;8.680;2023-09-30T08:04:18;20.40;99.90
5689;DHT22;2869;50.432;8.680;2023-09-30T08:06:45;20.60;99.90
5689;DHT22;2869;50.432;8.680;2023-09-30T08:09:13;20.50;99.90
5689;DHT22;2869;50.432;8.680;2023-09-30T08:11:40;20.40;99.90
5689;DHT22;2869;50.432;8.680;2023-09-30T08:14:06;20.20;99.90
5689;DHT22;2869;50.432;8.680;2023-09-30T08:16:36;20.20;99.90
5689;DHT22;2869;50.432;8.680;2023-09-30T08:19:03;20.10;99.90
5689;DHT22;2869;50.432;8.680;2023-09-30T08:21:30;20.10;99.90
5689;DHT22;2869;50.432;8.680;2023-09-30T08:23:57;20.30;99.90
5689;DHT22;2869;50.432;8.680;2023-09-30T08:26:23;20.50;99.90
5689;DHT22;2869;50.432;8.680;2023-09-30T08:28:50;20.70;99.90
5689;DHT22;2869;50.432;8.680;2023-09-30T08:31:17;20.80;99.90
5689;DHT22;2869;50.432;8.680;2023-09-30T08:33:45;20.80;99.90
5689;DHT22;2869;50.432;8.680;2023-09-30T08:36:12;20.80;99.90
5689;DHT22;2869;50.432;8.680;2023-09-30T08:38:40;21.00;99.90
5689;DHT22;2869;50.432;8.680;2023-09-30T08:41:08;21.30;99.90
5689;DHT22;2869;50.432;8.680;2023-09-30T08:43:38;21.50;99.90
5689;DHT22;2869;50.432;8.680;2023-09-30T08:46:05;21.70;99.90
5689;DHT22;2869;50.432;8.680;2023-09-30T08:48:33;21.80;99.90
5689;DHT22;2869;50.432;8.680;2023-09-30T08:51:02;22.00;99.90
5689;DHT22;2869;50.432;8.680;2023-09-30T08:53:29;22.20;99.90
5689;DHT22;2869;50.432;8.680;2023-09-30T08:55:56;22.50;99.90
5689;DHT22;2869;50.432;8.680;2023-09-30T08:58:26;22.80;99.90
5689;DHT22;2869;50.432;8.680;2023-09-30T09:00:53;22.60;99.90
5689;DHT22;2869;50.432;8.680;2023-09-30T09:03:20;22.70;99.90
5689;DHT22;2869;50.432;8.680;2023-09-30T09:05:50;22.80;99.90
5689;DHT22;2869;50.432;8.680;2023-09-30T09:08:20;22.70;99.90
5689;DHT22;2869;50.432;8.680;2023-09-30T09:10:54;22.70;99.90
5689;DHT22;2869;50.432;8.680;2023-09-30T09:13:22;22.80;99.90
5689;DHT22;2869;50.432;8.680;2023-09-30T09:15:50;22.70;99.90
5689;DHT22;2869;50.432;8.680;2023-09-30T09:18:31;22.80;99.90
5689;DHT22;2869;50.432;8.680;2023-09-30T09:21:07;23.10;99.90
5689;DHT22;2869;50.432;8.680;2023-09-30T09:23:40;23.20;99.90
5689;DHT22;2869;50.432;8.680;2023-09-30T09:26:07;23.10;99.90
5689;DHT22;2869;50.432;8.680;2023-09-30T09:28:37;23.10;99.90
5689;DHT22;2869;50.432;8.680;2023-09-30T09:31:19;22.60;99.90
5689;DHT22;2869;50.432;8.680;2023-09-30T09:33:47;22.00;99.90
5689;DHT22;2869;50.432;8.680;2023-09-30T09:36:15;21.60;99.90
5689;DHT22;2869;50.432;8.680;2023-09-30T09:38:47;21.00;99.90
5689;DHT22;2869;50.432;8.680;2023-09-30T09:41:15;20.60;99.90
5689;DHT22;2869;50.432;8.680;2023-09-30T09:43:42;20.70;99.90
5689;DHT22;2869;50.432;8.680;2023-09-30T09:46:10;20.90;99.90
5689;DHT22;2869;50.432;8.680;2023-09-30T09:48:37;21.30;99.90
5689;DHT22;2869;50.432;8.680;2023-09-30T09:51:04;21.90;99.90
5689;DHT22;2869;50.432;8.680;2023-09-30T09:53:34;22.20;99.90
5689;DHT22;2869;50.432;8.680;2023-09-30T09:56:03;21.90;99.90
5689;DHT22;2869;50.432;8.680;2023-09-30T09:58:33;22.00;99.90
5689;DHT22;2869;50.432;8.680;2023-09-30T10:01:01;22.30;99.90
5689;DHT22;2869;50.432;8.680;2023-09-30T10:03:27;22.70;99.90
5689;DHT22;2869;50.432;8.680;2023-09-30T10:05:54;22.80;99.90
5689;DHT22;2869;50.432;8.680;2023-09-30T10:08:30;22.80;99.90
5689;DHT22;2869;50.432;8.680;2023-09-30T10:10:57;22.90;99.90
5689;DHT22;2869;50.432;8.680;2023-09-30T10:13:51;23.10;99.90
5689;DHT22;2869;50.432;8.680;2023-09-30T10:16:46;23.20;99.90
5689;DHT22;2869;50.432;8.680;2023-09-30T10:19:14;22.90;99.90
5689;DHT22;2869;50.432;8.680;2023-09-30T10:22:24;22.50;99.90
5689;DHT22;2869;50.432;8.680;2023-09-30T10:24:55;21.90;99.90
5689;DHT22;2869;50.432;8.680;2023-09-30T10:27:33;21.50;99.90
5689;DHT22;2869;50.432;8.680;2023-09-30T10:30:08;21.20;99.90
5689;DHT22;2869;50.432;8.680;2023-09-30T10:33:12;20.90;99.90
5689;DHT22;2869;50.432;8.680;2023-09-30T10:35:47;21.20;99.90
5689;DHT22;2869;50.432;8.680;2023-09-30T10:38:36;21.70;99.90
5689;DHT22;2869;50.432;8.680;2023-09-30T10:41:03;22.20;99.90
5689;DHT22;2869;50.432;8.680;2023-09-30T10:43:30;22.30;99.90
5689;DHT22;2869;50.432;8.680;2023-09-30T10:45:58;22.30;99.90
5689;DHT22;2869;50.432;8.680;2023-09-30T10:48:38;22.40;99.90
5689;DHT22;2869;50.432;8.680;2023-09-30T10:51:16;22.70;99.90
5689;DHT22;2869;50.432;8.680;2023-09-30T10:53:47;23.00;99.90
5689;DHT22;2869;50.432;8.680;2023-09-30T10:56:17;23.30;99.90
5689;DHT22;2869;50.432;8.680;2023-09-30T10:58:44;23.50;99.90
5689;DHT22;2869;50.432;8.680;2023-09-30T11:01:14;23.40;99.90
5689;DHT22;2869;50.432;8.680;2023-09-30T11:03:41;22.90;99.90
5689;DHT22;2869;50.432;8.680;2023-09-30T11:06:11;22.70;99.90
5689;DHT22;2869;50.432;8.680;2023-09-30T11:08:44;22.90;99.90
5689;DHT22;2869;50.432;8.680;2023-09-30T11:11:11;23.30;99.90
5689;DHT22;2869;50.432;8.680;2023-09-30T11:13:40;23.70;99.90
5689;DHT22;2869;50.432;8.680;2023-09-30T11:16:07;24.10;99.90
5689;DHT22;2869;50.432;8.680;2023-09-30T11:18:35;24.10;99.90
5689;DHT22;2869;50.432;8.680;2023-09-30T11:21:08;24.10;99.90
5689;DHT22;2869;50.432;8.680;2023-09-30T11:23:36;23.80;99.90
5689;DHT22;2869;50.432;8.680;2023-09-30T11:26:03;23.80;99.90
5689;DHT22;2869;50.432;8.680;2023-09-30T11:28:38;23.50;99.90
5689;DHT22;2869;50.432;8.680;2023-09-30T11:31:09;23.30;99.90
5689;DHT22;2869;50.432;8.680;2023-09-30T11:33:51;23.40;99.90
5689;DHT22;2869;50.432;8.680;2023-09-30T11:36:19;23.80;99.90
5689;DHT22;2869;50.432;8.680;2023-09-30T11:38:48;24.20;99.90
5689;DHT22;2869;50.432;8.680;2023-09-30T11:41:16;24.20;99.90
5689;DHT22;2869;50.432;8.680;2023-09-30T11:43:58;23.90;99.90
5689;DHT22;2869;50.432;8.680;2023-09-30T11:46:26;23.60;99.90
5689;DHT22;2869;50.432;8.680;2023-09-30T11:48:58;23.90;99.90
5689;DHT22;2869;50.432;8.680;2023-09-30T11:51:26;24.20;99.90
5689;DHT22;2869;50.432;8.680;2023-09-30T11:53:53;24.50;99.90
5689;DHT22;2869;50.432;8.680;2023-09-30T11:56:20;24.70;99.90
5689;DHT22;2869;50.432;8.680;2023-09-30T11:58:47;24.90;99.90
5689;DHT22;2869;50.432;8.680;2023-09-30T12:01:14;25.20;99.90
5689;DHT22;2869;50.432;8.680;2023-09-30T12:03:41;25.30;99.90
5689;DHT22;2869;50.432;8.680;2023-09-30T12:06:09;24.90;99.90
5689;DHT22;2869;50.432;8.680;2023-09-30T12:08:39;24.70;99.90
5689;DHT22;2869;50.432;8.680;2023-09-30T12:11:05;24.50;99.90
5689;DHT22;2869;50.432;8.680;2023-09-30T12:13:32;24.30;99.90
5689;DHT22;2869;50.432;8.680;2023-09-30T12:15:59;24.30;99.90
5689;DHT22;2869;50.432;8.680;2023-09-30T12:18:26;24.20;99.90
5689;DHT22;2869;50.432;8.680;2023-09-30T12:20:53;24.30;99.90
5689;DHT22;2869;50.432;8.680;2023-09-30T12:23:21;24.00;99.90
5689;DHT22;2869;50.432;8.680;2023-09-30T12:25:48;23.80;99.90
5689;DHT22;2869;50.432;8.680;2023-09-30T12:28:14;23.80;99.90
5689;DHT22;2869;50.432;8.680;2023-09-30T12:30:43;23.70;99.90
5689;DHT22;2869;50.432;8.680;2023-09-30T12:33:09;23.50;99.90
5689;DHT22;2869;50.432;8.680;2023-09-30T12:35:36;23.60;99.90
5689;DHT22;2869;50.432;8.680;2023-09-30T12:38:03;23.70;99.90
5689;DHT22;2869;50.432;8.680;2023-09-30T12:40:31;23.70;99.90
5689;DHT22;2869;50.432;8.680;2023-09-30T12:42:59;23.80;99.90
5689;DHT22;2869;50.432;8.680;2023-09-30T12:45:26;23.80;99.90
5689;DHT22;2869;50.432;8.680;2023-09-30T12:47:53;23.90;99.90
5689;DHT22;2869;50.432;8.680;2023-09-30T12:50:22;23.90;99.90
5689;DHT22;2869;50.432;8.680;2023-09-30T12:52:48;24.00;99.90
5689;DHT22;2869;50.432;8.680;2023-09-30T12:55:15;23.70;99.90
5689;DHT22;2869;50.432;8.680;2023-09-30T12:57:43;23.40;99.90
5689;DHT22;2869;50.432;8.680;2023-09-30T13:00:11;23.40;99.90
5689;DHT22;2869;50.432;8.680;2023-09-30T13:02:37;23.40;99.90
5689;DHT22;2869;50.432;8.680;2023-09-30T13:05:05;23.50;99.90
5689;DHT22;2869;50.432;8.680;2023-09-30T13:07:32;23.50;99.90
5689;DHT22;2869;50.432;8.680;2023-09-30T13:09:59;23.50;99.90
5689;DHT22;2869;50.432;8.680;2023-09-30T13:12:27;23.70;99.90
5689;DHT22;2869;50.432;8.680;2023-09-30T13:14:55;23.80;99.90
5689;DHT22;2869;50.432;8.680;2023-09-30T13:17:21;23.80;99.90
5689;DHT22;2869;50.432;8.680;2023-09-30T13:19:49;23.80;99.90
5689;DHT22;2869;50.432;8.680;2023-09-30T13:22:16;23.80;99.90
5689;DHT22;2869;50.432;8.680;2023-09-30T13:24:43;23.60;99.90
5689;DHT22;2869;50.432;8.680;2023-09-30T13:27:10;23.80;99.90
5689;DHT22;2869;50.432;8.680;2023-09-30T13:29:36;23.90;99.90
5689;DHT22;2869;50.432;8.680;2023-09-30T13:32:04;24.00;99.90
5689;DHT22;2869;50.432;8.680;2023-09-30T13:34:31;24.10;99.90
5689;DHT22;2869;50.432;8.680;2023-09-30T13:36:58;24.10;99.90
5689;DHT22;2869;50.432;8.680;2023-09-30T13:39:24;24.00;99.90
5689;DHT22;2869;50.432;8.680;2023-09-30T13:41:51;23.90;99.90
5689;DHT22;2869;50.432;8.680;2023-09-30T13:44:18;24.00;99.90
5689;DHT22;2869;50.432;8.680;2023-09-30T13:46:45;23.80;99.90
5689;DHT22;2869;50.432;8.680;2023-09-30T13:49:13;23.80;99.90
5689;DHT22;2869;50.432;8.680;2023-09-30T13:51:39;23.60;99.90
5689;DHT22;2869;50.432;8.680;2023-09-30T13:54:07;23.50;99.90
5689;DHT22;2869;50.432;8.680;2023-09-30T13:56:33;23.50;99.90
5689;DHT22;2869;50.432;8.680;2023-09-30T13:59:00;23.60;99.90
5689;DHT22;2869;50.432;8.680;2023-09-30T14:01:27;23.60;99.90
5689;DHT22;2869;50.432;8.680;2023-09-30T14:03:54;23.60;99.90
5689;DHT22;2869;50.432;8.680;2023-09-30T14:06:24;23.70;99.90
5689;DHT22;2869;50.432;8.680;2023-09-30T14:08:51;23.80;99.90
5689;DHT22;2869;50.432;8.680;2023-09-30T14:11:18;23.60;99.90
5689;DHT22;2869;50.432;8.680;2023-09-30T14:13:45;23.40;99.90
5689;DHT22;2869;50.432;8.680;2023-09-30T14:16:11;23.40;99.90
5689;DHT22;2869;50.432;8.680;2023-09-30T14:18:38;23.40;99.90
5689;DHT22;2869;50.432;8.680;2023-09-30T14:21:05;23.40;99.90
5689;DHT22;2869;50.432;8.680;2023-09-30T14:23:33;23.40;99.90
5689;DHT22;2869;50.432;8.680;2023-09-30T14:25:59;23.30;99.90
5689;DHT22;2869;50.432;8.680;2023-09-30T14:28:30;23.10;99.90
5689;DHT22;2869;50.432;8.680;2023-09-30T14:30:57;23.10;99.90
5689;DHT22;2869;50.432;8.680;2023-09-30T14:33:24;22.90;99.90
5689;DHT22;2869;50.432;8.680;2023-09-30T14:35:50;22.90;99.90
5689;DHT22;2869;50.432;8.680;2023-09-30T14:38:18;22.70;99.90
5689;DHT22;2869;50.432;8.680;2023-09-30T14:40:46;22.40;99.90
5689;DHT22;2869;50.432;8.680;2023-09-30T14:43:12;22.10;99.90
5689;DHT22;2869;50.432;8.680;2023-09-30T14:45:40;21.80;99.90
5689;DHT22;2869;50.432;8.680;2023-09-30T14:48:07;21.60;99.90
5689;DHT22;2869;50.432;8.680;2023-09-30T14:50:35;21.40;99.90
5689;DHT22;2869;50.432;8.680;2023-09-30T14:53:02;21.20;99.90
5689;DHT22;2869;50.432;8.680;2023-09-30T14:55:31;21.20;99.90
5689;DHT22;2869;50.432;8.680;2023-09-30T14:57:59;21.20;99.90
5689;DHT22;2869;50.432;8.680;2023-09-30T15:00:26;21.20;99.90
5689;DHT22;2869;50.432;8.680;2023-09-30T15:02:52;21.10;99.90
5689;DHT22;2869;50.432;8.680;2023-09-30T15:05:20;21.00;99.90
5689;DHT22;2869;50.432;8.680;2023-09-30T15:07:47;20.90;99.90
5689;DHT22;2869;50.432;8.680;2023-09-30T15:10:13;20.90;99.90
5689;DHT22;2869;50.432;8.680;2023-09-30T15:12:40;20.90;99.90
5689;DHT22;2869;50.432;8.680;2023-09-30T15:15:09;20.90;99.90
5689;DHT22;2869;50.432;8.680;2023-09-30T15:17:35;20.80;99.90
5689;DHT22;2869;50.432;8.680;2023-09-30T15:20:02;20.70;99.90
5689;DHT22;2869;50.432;8.680;2023-09-30T15:22:31;20.60;99.90
5689;DHT22;2869;50.432;8.680;2023-09-30T15:24:58;20.60;99.90
5689;DHT22;2869;50.432;8.680;2023-09-30T15:27:25;20.60;99.90
5689;DHT22;2869;50.432;8.680;2023-09-30T15:29:52;20.40;99.90
5689;DHT22;2869;50.432;8.680;2023-09-30T15:32:21;20.30;99.90
5689;DHT22;2869;50.432;8.680;2023-09-30T15:34:48;20.20;99.90
5689;DHT22;2869;50.432;8.680;2023-09-30T15:37:15;20.20;99.90
5689;DHT22;2869;50.432;8.680;2023-09-30T15:39:41;20.20;99.90
5689;DHT22;2869;50.432;8.680;2023-09-30T15:42:08;20.20;99.90
5689;DHT22;2869;50.432;8.680;2023-09-30T15:44:37;20.30;99.90
5689;DHT22;2869;50.432;8.680;2023-09-30T15:47:05;20.30;99.90
5689;DHT22;2869;50.432;8.680;2023-09-30T15:49:33;20.30;99.90
5689;DHT22;2869;50.432;8.680;2023-09-30T15:52:00;20.10;99.90
5689;DHT22;2869;50.432;8.680;2023-09-30T15:54:27;19.90;99.90
5689;DHT22;2869;50.432;8.680;2023-09-30T15:56:53;19.80;99.90
5689;DHT22;2869;50.432;8.680;2023-09-30T15:59:20;19.80;99.90
5689;DHT22;2869;50.432;8.680;2023-09-30T16:01:46;19.70;99.90
5689;DHT22;2869;50.432;8.680;2023-09-30T16:04:14;19.70;99.90
5689;DHT22;2869;50.432;8.680;2023-09-30T16:06:42;19.60;99.90
5689;DHT22;2869;50.432;8.680;2023-09-30T16:09:09;19.50;99.90